createdAt,value
2019-03-03T00:00:45.718Z,23.03
2019-03-03T00:05:52.407Z,27.57
2019-03-03T00:10:59.262Z,26.80
2019-03-03T00:16:07.006Z,28.57
2019-03-03T00:21:13.062Z,30.33
2019-03-03T00:26:20.334Z,29.73
2019-03-03T00:31:38.887Z,27.10
2019-03-03T00:37:02.334Z,23.83
2019-03-03T00:42:31.414Z,23.13
2019-03-03T00:47:52.625Z,25.80
2019-03-03T00:53:05.566Z,20.83
2019-03-03T00:58:20.548Z,28.60
2019-03-03T01:03:32.592Z,23.97
2019-03-03T01:08:56.978Z,25.67
2019-03-03T01:14:14.853Z,27.80
2019-03-03T01:19:39.728Z,26.33
2019-03-03T01:24:59.040Z,31.87
2019-03-03T01:30:08.519Z,32.83
2019-03-03T01:35:14.832Z,39.97
2019-03-03T01:40:21.158Z,38.93
2019-03-03T01:45:29.038Z,39.10
2019-03-03T01:50:35.700Z,41.10
2019-03-03T01:55:42.424Z,48.03
2019-03-03T02:00:50.218Z,43.77
2019-03-03T02:05:56.678Z,47.10
2019-03-03T02:11:02.731Z,47.00
2019-03-03T02:16:10.618Z,45.13
2019-03-03T02:21:18.316Z,44.50
2019-03-03T02:26:24.522Z,43.60
2019-03-03T02:31:32.182Z,40.57
2019-03-03T02:36:39.979Z,50.20
2019-03-03T02:41:48.227Z,42.60
2019-03-03T02:46:54.367Z,43.80
2019-03-03T02:52:02.008Z,47.27
2019-03-03T02:57:09.778Z,45.60
2019-03-03T03:02:35.000Z,53.73
2019-03-03T03:07:49.219Z,49.30
2019-03-03T03:13:11.944Z,50.63
2019-03-03T03:18:42.784Z,45.20
2019-03-03T03:24:17.895Z,45.47
2019-03-03T03:29:32.821Z,46.20
2019-03-03T03:34:50.199Z,46.97
2019-03-03T03:40:25.835Z,51.40
2019-03-03T03:45:50.170Z,49.73
2019-03-03T03:51:15.291Z,38.90
2019-03-03T03:56:56.800Z,39.17
2019-03-03T04:02:21.866Z,38.70
2019-03-03T04:07:44.515Z,31.87
2019-03-03T04:13:13.575Z,36.00
2019-03-03T04:18:38.746Z,28.20
2019-03-03T04:24:02.375Z,28.83
2019-03-03T04:29:34.962Z,32.23
2019-03-03T04:35:01.171Z,31.67
2019-03-03T04:40:23.438Z,29.03
2019-03-03T04:45:35.927Z,33.17
2019-03-03T04:51:04.475Z,35.20
2019-03-03T04:56:20.410Z,38.43
2019-03-03T05:01:39.963Z,32.57
2019-03-03T05:07:09.550Z,30.30
2019-03-03T05:12:37.974Z,27.43
2019-03-03T05:17:55.471Z,25.23
2019-03-03T05:23:02.266Z,25.30
2019-03-03T05:28:09.367Z,34.83
2019-03-03T05:33:16.901Z,33.47
2019-03-03T05:38:23.348Z,38.30
2019-03-03T05:43:31.111Z,33.67
2019-03-03T05:48:37.833Z,38.07
2019-03-03T05:53:44.003Z,34.77
2019-03-03T05:58:51.899Z,42.23
2019-03-03T06:03:59.735Z,37.33
2019-03-03T06:09:07.975Z,41.20
2019-03-03T06:14:14.175Z,44.77
2019-03-03T06:19:21.771Z,40.20
2019-03-03T06:24:29.479Z,41.83
2019-03-03T06:29:37.226Z,44.67
2019-03-03T06:34:43.261Z,47.50
2019-03-03T06:39:51.294Z,43.43
2019-03-03T06:44:58.824Z,38.67
2019-03-03T06:50:05.404Z,42.30
2019-03-03T06:55:12.434Z,43.17
2019-03-03T07:00:20.281Z,43.97
2019-03-03T07:05:26.518Z,39.83
2019-03-03T07:10:32.877Z,32.43
2019-03-03T07:15:40.373Z,37.27
2019-03-03T07:20:48.058Z,37.40
2019-03-03T07:25:54.160Z,37.20
2019-03-03T07:31:01.229Z,36.50
2019-03-03T07:36:09.020Z,39.80
2019-03-03T07:41:15.115Z,36.40
2019-03-03T07:46:22.613Z,38.50
2019-03-03T07:51:30.378Z,46.53
2019-03-03T07:56:37.696Z,43.70
2019-03-03T08:01:44.522Z,49.43
2019-03-03T08:06:51.140Z,36.23
2019-03-03T08:11:59.006Z,35.80
2019-03-03T08:17:05.127Z,32.53
2019-03-03T08:22:12.935Z,40.40
2019-03-03T08:27:19.235Z,36.70
2019-03-03T08:32:27.053Z,36.47
2019-03-03T08:37:33.004Z,33.43
2019-03-03T08:42:59.592Z,42.67
2019-03-03T08:48:28.770Z,32.27
2019-03-03T08:53:47.936Z,35.83
2019-03-03T08:59:03.790Z,39.27
2019-03-03T09:04:39.316Z,39.43
2019-03-03T09:10:04.813Z,35.00
2019-03-03T09:15:27.374Z,36.63
2019-03-03T09:20:57.994Z,35.00
2019-03-03T09:26:32.188Z,30.63
2019-03-03T09:32:03.972Z,35.10
2019-03-03T09:37:32.838Z,32.23
2019-03-03T09:43:02.991Z,30.20
2019-03-03T09:48:29.072Z,24.87
2019-03-03T09:53:57.435Z,28.97
2019-03-03T09:59:34.470Z,27.33
2019-03-03T10:05:03.038Z,24.63
2019-03-03T10:10:37.349Z,25.23
2019-03-03T10:15:48.384Z,35.20
2019-03-03T10:21:08.503Z,35.83
2019-03-03T10:26:36.040Z,42.30
2019-03-03T10:32:13.632Z,36.47
2019-03-03T10:37:45.912Z,43.40
2019-03-03T10:43:05.778Z,39.63
2019-03-03T10:48:29.688Z,33.07
2019-03-03T10:53:52.591Z,42.13
2019-03-03T10:59:08.048Z,43.57
2019-03-03T11:04:31.431Z,40.17
2019-03-03T11:09:49.258Z,39.17
2019-03-03T11:15:18.442Z,35.40
2019-03-03T11:20:41.903Z,36.60
2019-03-03T11:26:02.330Z,31.60
2019-03-03T11:31:28.026Z,31.47
2019-03-03T11:36:41.890Z,33.03
2019-03-03T11:42:08.595Z,32.47
2019-03-03T11:47:32.491Z,35.47
2019-03-03T11:53:14.088Z,35.63
2019-03-03T11:58:49.172Z,44.07
2019-03-03T12:04:07.256Z,22.40
2019-03-03T12:09:48.121Z,27.37
2019-03-03T12:14:59.864Z,26.77
2019-03-03T12:20:14.609Z,25.53
2019-03-03T12:25:36.575Z,27.70
2019-03-03T12:30:58.544Z,25.80
2019-03-03T12:36:23.655Z,25.73
2019-03-03T12:41:50.120Z,27.40
2019-03-03T12:47:07.122Z,25.27
2019-03-03T12:52:35.273Z,25.63
2019-03-03T12:58:19.557Z,25.13
2019-03-03T13:03:37.078Z,26.33
2019-03-03T13:09:20.112Z,24.03
2019-03-03T13:14:46.938Z,36.83
2019-03-03T13:20:11.711Z,27.30
2019-03-03T13:25:38.229Z,25.83
2019-03-03T13:31:04.038Z,25.63
2019-03-03T13:36:45.090Z,27.23
2019-03-03T13:42:10.356Z,27.30
2019-03-03T13:47:16.837Z,23.63
2019-03-03T13:52:23.311Z,25.57
2019-03-03T13:57:31.293Z,27.00
2019-03-03T14:02:39.337Z,25.83
2019-03-03T14:07:47.364Z,23.60
2019-03-03T14:12:53.741Z,22.57
2019-03-03T14:18:01.662Z,28.97
2019-03-03T14:23:09.311Z,19.80
2019-03-03T14:28:15.410Z,30.40
2019-03-03T14:33:22.307Z,27.10
2019-03-03T14:38:30.140Z,26.23
2019-03-03T14:43:37.077Z,35.73
2019-03-03T14:48:43.158Z,26.93
2019-03-03T14:53:50.709Z,28.77
2019-03-03T14:58:58.364Z,29.53
2019-03-03T15:04:04.430Z,26.73
2019-03-03T15:09:24.711Z,22.57
2019-03-03T15:14:31.672Z,23.90
2019-03-03T15:19:39.300Z,26.27
2019-03-03T15:24:46.565Z,25.37
2019-03-03T15:29:52.618Z,27.70
2019-03-03T15:35:00.122Z,22.73
2019-03-03T15:40:07.703Z,17.77
2019-03-03T15:45:18.221Z,19.23
2019-03-03T15:50:24.496Z,22.93
2019-03-03T15:55:32.712Z,14.23
2019-03-03T16:00:40.385Z,11.47
2019-03-03T16:05:46.847Z,13.20
2019-03-03T16:10:53.126Z,15.80
2019-03-03T16:16:00.438Z,15.83
2019-03-03T16:21:06.474Z,17.23
2019-03-03T16:26:12.609Z,22.87
2019-03-03T16:31:20.299Z,14.73
2019-03-03T16:36:26.719Z,18.63
2019-03-03T16:41:33.891Z,13.60
2019-03-03T16:46:42.028Z,10.50
2019-03-03T16:51:49.086Z,16.67
2019-03-03T16:56:55.560Z,16.10
2019-03-03T17:02:02.304Z,12.63
2019-03-03T17:07:09.514Z,12.23
2019-03-03T17:12:16.623Z,15.47
2019-03-03T17:17:22.609Z,16.83
2019-03-03T17:22:30.358Z,17.03
2019-03-03T17:27:37.734Z,18.23
2019-03-03T17:32:43.850Z,16.80
2019-03-03T17:37:51.708Z,20.57
2019-03-03T17:42:59.245Z,18.30
2019-03-03T17:48:06.774Z,13.17
2019-03-03T17:53:12.833Z,28.50
2019-03-03T17:58:20.371Z,22.73
2019-03-03T18:03:27.981Z,25.00
2019-03-03T18:08:34.058Z,26.63
2019-03-03T18:13:41.805Z,23.77
2019-03-03T18:18:49.173Z,15.47
2019-03-03T18:23:56.910Z,20.50
2019-03-03T18:29:04.241Z,24.83
2019-03-03T18:34:11.063Z,17.90
2019-03-03T18:39:18.635Z,27.63
2019-03-03T18:44:24.721Z,22.03
2019-03-03T18:49:31.735Z,25.03
2019-03-03T18:54:39.382Z,20.50
2019-03-03T18:59:46.581Z,21.70
2019-03-03T19:04:52.927Z,25.30
2019-03-03T19:10:00.361Z,39.13
2019-03-03T19:15:09.790Z,48.40
2019-03-03T19:20:18.778Z,27.70
2019-03-03T19:25:25.072Z,21.40
2019-03-03T19:30:31.374Z,27.47
2019-03-03T19:35:39.331Z,21.17
2019-03-03T19:40:47.311Z,25.23
2019-03-03T19:45:53.384Z,25.77
2019-03-03T19:51:03.211Z,22.30
2019-03-03T19:56:09.243Z,19.87
2019-03-03T20:01:17.083Z,20.53
2019-03-03T20:06:23.766Z,18.77
2019-03-03T20:11:31.221Z,25.53
2019-03-03T20:16:39.069Z,22.83
2019-03-03T20:21:45.822Z,24.13
2019-03-03T20:26:54.182Z,20.10
2019-03-03T20:32:01.720Z,20.87
2019-03-03T20:37:09.507Z,15.80
2019-03-03T20:42:16.912Z,20.43
2019-03-03T20:47:23.030Z,20.80
2019-03-03T20:52:30.427Z,15.17
2019-03-03T20:57:44.836Z,23.53
2019-03-03T21:02:51.966Z,22.00
2019-03-03T21:07:59.706Z,17.20
2019-03-03T21:13:07.702Z,27.53
2019-03-03T21:18:13.760Z,28.23
2019-03-03T21:23:21.538Z,21.10
2019-03-03T21:28:29.333Z,22.13
2019-03-03T21:33:36.962Z,22.57
2019-03-03T21:38:42.926Z,20.97
2019-03-03T21:43:49.342Z,22.13
2019-03-03T21:48:57.153Z,23.83
2019-03-03T21:54:03.175Z,20.07
2019-03-03T21:59:11.091Z,21.37
2019-03-03T22:04:18.722Z,27.90
2019-03-03T22:09:24.779Z,19.13
2019-03-03T22:14:32.784Z,25.67
2019-03-03T22:19:38.747Z,20.67
2019-03-03T22:24:44.662Z,22.03
2019-03-03T22:29:51.025Z,21.40
2019-03-03T22:34:57.003Z,59.20
2019-03-03T22:40:02.931Z,28.30
2019-03-03T22:45:11.843Z,24.37
2019-03-03T22:50:19.611Z,27.97
2019-03-03T22:55:25.624Z,21.53
2019-03-03T23:00:50.260Z,27.10
2019-03-03T23:06:05.736Z,28.50
2019-03-03T23:12:05.552Z,33.40
2019-03-03T23:17:59.255Z,21.13
2019-03-03T23:23:42.823Z,20.30
2019-03-03T23:28:50.200Z,18.17
2019-03-03T23:33:56.137Z,18.17
2019-03-03T23:39:02.147Z,18.77
2019-03-03T23:44:09.282Z,18.97
2019-03-03T23:49:15.561Z,19.50
2019-03-03T23:54:22.339Z,16.47
2019-03-03T23:59:29.100Z,18.57
